中古ドメイン(オールドドメイン)無料販売所



このサイトで紹介しているのは、
私が発見した中古ドメインのリストです。

更新は7~14日に1回を目安としています(不定期)

また、更新されましたら、私のメルマガで紹介していますので、
更新が知りたい人は私のメルマガにご登録下さい。

メルマガはこちら
アフィリエイトなどに使える中古ドメインを紹介!

紹介してい中古ドメインの説明はこちらのページもご覧ください。
このサイトで紹介している中古ドメインの品質は?

 
<用語の説明>
*BL:同じドメインからのリンクを含むバックリンク数
(例えば、1つのドメインから100リンクされていれば100)
*BLD:クラスC分散に対応したバックリンクドメイン数
(2つのドメインからリンクされていても、クラスC分散されていなければ1)
*gov:リンクされているgovリンクの数
*edu:リンクされているeduリンクの数
*TF:Majesticトラストフロー
*CF:MajesticCitationフロー
*Whois:初めてwhoisに登録された年
*archive:初めてarchive.orgに登録された年




*未チェックの場合、100件までしか表示されません。(100件以上表示されるとトップページが重くなってしまうため)
                
*ただ今複数のTLDの検索ができません(0件表示になります)ご了承ください。
バックリンク数以上    バックリンクドメイン(BLD)数以上
GOVドメイン数以上    eduドメイン数以上
TF以上    CF以上
追加日以内
whois以下
*【2015】と記入しますと2015年以前のドメインが表示されます。



掲載ドメイン数3943件
ドメインの取得有無のチェック時間:2018/05/21 15:01
表示ドメイン数100件
Domain SEO BL BLD gov edu TF CF whois archive 発見日
orchidkonnection.com SMG 90 24 0 0 16 9 2000 2001 2018-05-21
aguide2northcarolina.com SMG 4392 27 0 0 16 9 2004 2004 2018-05-21
dcs-equipements.com SMG 753 92 0 0 21 9 2005 2005 2018-05-21
gtf-ukraine.com SMG 131 20 0 0 19 8 2005 2007 2018-05-21
yogawithkelly.com SMG 43 16 0 0 19 8 2002 2002 2018-05-21
nassfest.com SMG 386 46 0 0 6 11 2007 2007 2018-05-21
sonomamountainbusinesscluster.com SMG 83 17 0 0 5 8 2006 2006 2018-05-21
chpclub.com SMG 30 18 0 2 13 8 1999 2000 2018-05-21
grandeneighborhood.com SMG 316 19 0 0 11 11 2005 2005 2018-05-21
darfnews.com SMG 99 28 0 0 9 10 2007 2010 2018-05-21
arlenepersaud.com SMG 46 16 0 0 20 8 2000 2003 2018-05-21
fryzury24.com SMG 2996 29 0 0 6 10 2007 2007 2018-05-21
hynergreen.com SMG 129 21 0 0 9 9 2003 2004 2018-05-21
art316.com SMG 61 18 0 0 5 6 2000 2001 2018-05-21
ettrema.com SMG 352 42 0 0 11 8 2006 2011 2018-05-21
townhp.com SMG 70 27 0 0 7 10 2007 2007 2018-05-21
skydivetortuga.com SMG 397 33 0 0 13 9 2003 2003 2018-05-21
shopabsolutecp.com SMG 307 17 0 0 8 10 2006 2007 2018-05-21
memcobarge.com SMG 209 23 0 0 8 11 1997 2000 2018-05-21
tidewaterpreservation.com SMG 832 63 0 1 17 12 2006 2011 2018-05-21
bryantfloorsvc.com SMG 60 20 0 0 7 8 2007 2008 2018-05-21
kircherlawoffice.com SMG 32 17 0 0 6 8 2002 2003 2018-05-21
dizisoft.com SMG 52 26 0 0 5 8 2007 2007 2018-05-21
faithevangelicalchurch.com SMG 31 17 0 0 10 8 2000 2001 2018-05-21
mivadiva.com SMG 25 15 0 0 20 8 2000 2001 2018-05-21
chrisbourbeau.com SMG 32353 78 0 0 6 33 2007 2007 2018-05-21
iamcheapcologne.com SMG 1285 43 0 0 11 11 2005 2005 2018-05-21
templatesonweb.com SMG 68 19 0 0 15 7 2007 2007 2018-05-21
propertytaxfix.com SMG 38 23 0 0 14 12 2007 2007 2018-05-21
eagleillustrations.com SMG 62 16 0 0 11 8 2000 2000 2018-05-21
mistyproductionservice.com SMG 63 28 0 0 21 9 2000 2000 2018-05-21
teras-jp.com SMG 146 36 0 0 15 11 1999 1999 2018-05-21
burchwords.com SMG 168 28 0 0 6 8 2007 2007 2018-05-21
freebeautifulpictures.com SMG 275 41 0 0 18 9 2006 2007 2018-05-21
altalomamusic.com SMG 201 19 0 0 11 9 1999 2001 2018-05-21
howtheinternetruns.com SMG 94 32 0 0 9 9 2000 2000 2018-05-21
pureluxlimos.com SMG 944 26 0 0 14 15 2005 2006 2018-05-21
tromboneplayerwanted.com SMG 128 18 0 0 6 7 2006 2007 2018-05-21
coralieenterprises.com SMG 160 29 0 0 5 9 2007 2008 2018-05-21
artemisindustries.com SMG 106 20 0 0 10 8 1998 1999 2018-05-21
4groundwork.com SMG 157 19 0 0 10 8 1999 2004 2018-05-21
fijolli-opals.com SMG 33 18 0 0 6 7 2000 2000 2018-05-21
grassisgreenergardens.com SMG 411 22 0 0 19 8 2004 2004 2018-05-21
byramrealty.com SMG 54 25 0 0 16 9 1999 1999 2018-05-21
suicidekillers.com SMG 70 22 0 0 5 8 2007 2003 2018-05-21
chartworksinc.com SMG 26 15 0 1 6 8 1998 1998 2018-05-21
home–automation.com SMG 1942 69 0 0 22 11 2005 2005 2018-05-21
charmes-de-chloe.com SMG 191 16 0 0 5 8 2003 2003 2018-05-21
rabbidanielsiegel.com SMG 1536 15 0 0 14 11 2003 2003 2018-05-21
bicycleworldandfitness.com SMG 100 35 0 0 9 9 2004 2004 2018-05-21
auregane.com SMG 42 16 0 0 18 7 2001 2003 2018-05-21
carverhighschool.com SMG 92 31 0 0 6 9 2002 2002 2018-05-21
standixonentertainment.com SMG 779 20 0 0 14 9 2006 2006 2018-05-21
bobbyhackett.com SMG 1449 34 0 0 11 10 2001 2001 2018-05-21
wsmcracing.com SMG 3227 49 0 0 15 14 2005 2005 2018-05-21
aprilia-usa.com SMG 536 32 0 0 9 9 2000 2001 2018-05-21
bluelotussrilanka.com SMG 50 18 0 0 8 7 2004 2004 2018-05-21
kohler-miller.com SMG 32 22 0 0 20 8 2001 2001 2018-05-21
business-support-services.com SMG 82 28 0 0 21 9 2001 2002 2018-05-21
hermitmusic.com SMG 681 27 0 0 14 10 2000 2001 2018-05-21
stalowemagnolie.com SMG 478 46 0 0 5 11 2004 2004 2018-05-21
webo1330.com SMG 224 28 0 0 11 3 2006 2007 2018-05-21
jcffasthealth.com SMG 3055 37 1 1 16 13 2004 2004 2018-05-21
xango.tv SMG 262 22 0 0 6 9 2005 2007 2018-05-20
indielinkexchange.com SMG 91 31 0 0 15 9 2000 2000 2018-05-20
unionbankandtrustcompany.com SMG 148 34 0 0 9 10 2002 2005 2018-05-20
glassaffinity.com SMG 146 55 0 1 13 11 2004 2004 2018-05-20
manipulationcards.com SMG 49 21 0 0 6 7 2003 2003 2018-05-20
stroy-consult.com SMG 73 25 0 0 9 10 2005 2005 2018-05-20
hotelausonianapoli.com SMG 194 35 0 0 8 9 2005 2005 2018-05-20
newport-coast-real-estate-for-sale.com SMG 26 15 0 0 19 8 2000 2000 2018-05-20
campbellriverbedandbreakfast.com SMG 61 17 0 0 19 9 2001 2001 2018-05-20
keirisquare.com SMG 39 17 0 0 19 9 2007 2007 2018-05-20
originalstylophone.com SMG 143 33 0 0 6 11 2007 2007 2018-05-20
shop-magiczone.com SMG 44 20 0 0 11 8 2005 2005 2018-05-20
musicmoviesbooks.com SMG 90 25 0 0 11 9 2002 2002 2018-05-20
esta-international.com SMG 456 35 0 0 5 9 2006 2006 2018-05-20
small-indulgences.com SMG 37 21 0 0 8 8 1998 1999 2018-05-20
relaisimelograni.com SMG 54 18 0 0 20 8 2004 2004 2018-05-20
car-accessories-and-parts.com SMG 1648 28 0 0 21 11 2003 2003 2018-05-20
georgerockwood.com SMG 108 21 0 0 19 8 2007 2007 2018-05-20
zionorgan.com SMG 1230 21 0 0 7 10 2007 2009 2018-05-20
scubawebmasters.com SMG 187 18 0 0 8 8 2005 2005 2018-05-20
twinriversmedctr.com SMG 87 25 0 0 10 9 2000 2001 2018-05-20
tripleplayusa.com SMG 70 27 0 0 12 8 1999 1999 2018-05-20
munnarweb.com SMG 1309 39 0 0 10 7 2007 2007 2018-05-20
bendertransportation.com SMG 112 21 0 0 11 8 2000 2000 2018-05-20
salins-fontenay.com SMG 703 15 0 0 6 9 2006 2007 2018-05-20
folly-kertepites.com SMG 232 15 0 0 6 6 2006 2006 2018-05-20
pointandclickinsurance.com SMG 164 25 0 0 6 9 2005 2005 2018-05-20
shopdjshadow.com SMG 124 24 0 0 9 8 2005 2005 2018-05-20
juliewolfedesign.com SMG 126 37 0 0 7 10 2007 2007 2018-05-20
chiroatrium.com SMG 457 28 0 0 20 8 2005 2006 2018-05-20
newportrunabout.com SMG 155 31 0 0 6 9 2002 2002 2018-05-20
prefabupdate.com SMG 89 15 0 0 5 8 2007 2007 2018-05-20
ristorantesanbriccio.com SMG 62 16 0 0 20 8 2002 2002 2018-05-20
scottboyerhomes.com SMG 113 15 0 0 12 8 2006 2006 2018-05-20
luxakron.com SMG 27 16 0 0 6 8 2007 2007 2018-05-20
adamspointwinery.com SMG 143 19 0 0 8 8 2005 2007 2018-05-20
kids-online-games.com SMG 135 25 0 0 10 9 2002 2002 2018-05-20
お名前.com ドメイン登録
こちらから購入していただけますとやる気につながります。